createdAt,value
2018-01-26T00:02:19.468Z,100701
2018-01-26T00:07:22.777Z,100701
2018-01-26T00:12:25.850Z,100708
2018-01-26T00:17:29.698Z,100697
2018-01-26T00:22:33.932Z,100694
2018-01-26T00:27:37.819Z,100692
2018-01-26T00:32:42.207Z,100691
2018-01-26T00:37:46.647Z,100695
2018-01-26T00:42:51.121Z,100698
2018-01-26T00:47:55.578Z,100696
2018-01-26T00:52:59.998Z,100684
2018-01-26T00:58:03.847Z,100689
2018-01-26T01:03:07.904Z,100689
2018-01-26T01:08:11.759Z,100695
2018-01-26T01:13:15.599Z,100694
2018-01-26T01:18:19.474Z,100700
2018-01-26T01:23:22.966Z,100702
2018-01-26T01:28:26.839Z,100694
2018-01-26T01:33:31.440Z,100687
2018-01-26T01:38:36.046Z,100677
2018-01-26T01:43:39.131Z,100682
2018-01-26T01:48:42.233Z,100692
2018-01-26T01:53:46.840Z,100699
2018-01-26T01:58:50.742Z,100688
2018-01-26T02:03:53.827Z,100691
2018-01-26T02:08:58.262Z,100696
2018-01-26T02:14:02.179Z,100705
2018-01-26T02:19:05.659Z,100707
2018-01-26T02:24:33.051Z,100703
2018-01-26T02:29:36.877Z,100702
2018-01-26T02:34:41.298Z,100702
2018-01-26T02:39:44.393Z,100704
2018-01-26T02:44:47.862Z,100693
2018-01-26T02:49:51.012Z,100686
2018-01-26T02:54:54.863Z,100691
2018-01-26T02:59:57.956Z,100705
2018-01-26T03:05:02.436Z,100714
2018-01-26T03:10:06.885Z,100711
2018-01-26T03:15:10.740Z,100709
2018-01-26T03:20:15.198Z,100715
2018-01-26T03:25:19.048Z,100710
2018-01-26T03:30:23.668Z,100720
2018-01-26T03:35:28.640Z,100731
2018-01-26T03:40:33.232Z,100726
2018-01-26T03:45:37.449Z,100736
2018-01-26T03:50:41.319Z,100748
2018-01-26T03:55:45.542Z,100765
2018-01-26T04:00:49.975Z,100768
2018-01-26T04:05:55.284Z,100770
2018-01-26T04:10:59.144Z,100784
2018-01-26T04:16:02.238Z,100785
2018-01-26T04:21:05.346Z,100781
2018-01-26T04:26:09.796Z,100789
2018-01-26T04:31:14.404Z,100791
2018-01-26T04:36:19.045Z,100791
2018-01-26T04:41:22.160Z,100792
2018-01-26T04:46:25.655Z,100789
2018-01-26T04:51:30.264Z,100791
2018-01-26T04:56:34.862Z,100784
2018-01-26T05:01:39.332Z,100793
2018-01-26T05:06:42.424Z,100805
2018-01-26T05:11:46.881Z,100818
2018-01-26T05:16:50.741Z,100805
2018-01-26T05:21:55.353Z,100808
2018-01-26T05:26:58.447Z,100807
2018-01-26T05:32:01.545Z,100803
2018-01-26T05:37:04.637Z,100798
2018-01-26T05:42:08.541Z,100803
2018-01-26T05:47:13.035Z,100811
2018-01-26T05:52:17.488Z,100814
2018-01-26T05:57:22.138Z,100828
2018-01-26T06:02:25.253Z,100832
2018-01-26T06:07:30.591Z,100836
2018-01-26T06:12:34.820Z,100851
2018-01-26T06:17:39.259Z,100846
2018-01-26T06:22:43.696Z,100835
2018-01-26T06:27:47.649Z,100835
2018-01-26T06:32:53.857Z,100838
2018-01-26T06:37:58.318Z,100864
2018-01-26T06:43:02.145Z,100861
2018-01-26T06:48:05.997Z,100860
2018-01-26T06:53:10.461Z,100878
2018-01-26T06:58:13.944Z,100897
2018-01-26T07:03:17.826Z,100916
2018-01-26T07:08:20.946Z,100918
2018-01-26T07:13:24.892Z,100928
2018-01-26T07:18:29.098Z,100945
2018-01-26T07:23:33.548Z,100941
2018-01-26T07:28:37.425Z,100952
2018-01-26T07:33:40.947Z,100954
2018-01-26T07:38:44.036Z,100950
2018-01-26T07:43:48.266Z,100968
2018-01-26T07:48:51.360Z,100971
2018-01-26T07:53:54.472Z,100973
2018-01-26T07:58:57.576Z,100979
2018-01-26T08:04:02.031Z,100980
2018-01-26T08:09:06.651Z,100978
2018-01-26T08:14:09.778Z,100985
2018-01-26T08:19:14.009Z,100992
2018-01-26T08:24:17.129Z,101001
2018-01-26T08:29:20.245Z,101008
2018-01-26T08:34:24.107Z,101001
2018-01-26T08:39:27.228Z,100992
2018-01-26T08:44:31.476Z,100999
2018-01-26T08:49:35.322Z,100989
2018-01-26T08:54:39.765Z,100984
2018-01-26T08:59:44.216Z,101003
2018-01-26T09:04:47.704Z,101013
2018-01-26T09:09:52.157Z,101022
2018-01-26T09:14:56.595Z,101028
2018-01-26T09:20:00.078Z,101037
2018-01-26T09:25:04.520Z,101056
2018-01-26T09:30:08.982Z,101062
2018-01-26T09:35:12.456Z,101075
2018-01-26T09:40:15.573Z,101075
2018-01-26T09:45:20.005Z,101081
2018-01-26T09:50:24.484Z,101089
2018-01-26T09:55:29.506Z,101088
2018-01-26T10:00:33.928Z,101093
2018-01-26T10:05:37.412Z,101094
2018-01-26T10:10:40.516Z,101093
2018-01-26T10:15:44.976Z,101102
2018-01-26T10:20:48.833Z,101103
2018-01-26T10:25:52.699Z,101095
2018-01-26T10:30:57.141Z,101097
2018-01-26T10:36:01.593Z,101105
2018-01-26T10:41:06.052Z,101113
2018-01-26T10:46:09.908Z,101119
2018-01-26T10:51:14.144Z,101121
2018-01-26T10:56:18.391Z,101129
2018-01-26T11:01:21.488Z,101127
2018-01-26T11:06:24.603Z,101133
2018-01-26T11:11:28.116Z,101137
2018-01-26T11:16:31.237Z,101139
2018-01-26T11:21:35.509Z,101151
2018-01-26T11:26:38.627Z,101152
2018-01-26T11:31:42.505Z,101156
2018-01-26T11:36:46.005Z,101159
2018-01-26T11:41:50.442Z,101165
2018-01-26T11:46:55.988Z,101172
2018-01-26T11:51:59.488Z,101183
2018-01-26T11:57:03.723Z,101184
2018-01-26T12:02:07.568Z,101184
2018-01-26T12:07:11.991Z,101175
2018-01-26T12:12:15.167Z,101170
2018-01-26T12:17:19.443Z,101174
2018-01-26T12:22:22.924Z,101177
2018-01-26T12:27:27.351Z,101181
2018-01-26T12:32:31.792Z,101179
2018-01-26T12:37:36.037Z,101188
2018-01-26T12:42:39.571Z,101183
2018-01-26T12:47:44.207Z,101183
2018-01-26T12:52:48.140Z,101196
2018-01-26T12:57:52.005Z,101198
2018-01-26T13:02:56.608Z,101198
2018-01-26T13:08:00.106Z,101202
2018-01-26T13:13:03.579Z,101203
2018-01-26T13:18:07.439Z,101202
2018-01-26T13:23:10.535Z,101210
2018-01-26T13:28:14.967Z,101209
2018-01-26T13:33:19.204Z,101205
2018-01-26T13:38:23.091Z,101217
2018-01-26T13:43:27.287Z,101219
2018-01-26T13:48:30.371Z,101222
2018-01-26T13:53:34.259Z,101230
2018-01-26T13:58:38.987Z,101234
2018-01-26T14:03:43.590Z,101246
2018-01-26T14:08:46.685Z,101249
2018-01-26T14:13:50.172Z,101257
2018-01-26T14:18:54.765Z,101269
2018-01-26T14:23:59.231Z,101280
2018-01-26T14:29:03.465Z,101293
2018-01-26T14:34:07.896Z,101299
2018-01-26T14:39:12.337Z,101299
2018-01-26T14:44:16.784Z,101314
2018-01-26T14:49:21.425Z,101319
2018-01-26T14:54:25.688Z,101322
2018-01-26T14:59:29.587Z,101334
2018-01-26T15:04:33.973Z,101346
2018-01-26T15:09:37.096Z,101355
2018-01-26T15:14:40.172Z,101354
2018-01-26T15:19:44.012Z,101363
2018-01-26T15:24:47.087Z,101361
2018-01-26T15:29:50.560Z,101355
2018-01-26T15:34:53.656Z,101350
2018-01-26T15:39:56.743Z,101347
2018-01-26T15:45:00.964Z,101342
2018-01-26T15:50:05.420Z,101343
2018-01-26T15:55:09.874Z,101354
2018-01-26T16:00:13.719Z,101364
2018-01-26T16:05:16.807Z,101378
2018-01-26T16:10:19.894Z,101395
2018-01-26T16:15:23.777Z,101402
2018-01-26T16:20:29.115Z,101398
2018-01-26T16:25:33.590Z,101409
2018-01-26T16:30:37.064Z,101418
2018-01-26T16:35:40.184Z,101434
2018-01-26T16:40:45.363Z,101435
2018-01-26T16:45:49.648Z,101442
2018-01-26T16:50:52.780Z,101454
2018-01-26T16:55:55.852Z,101460
2018-01-26T17:00:59.323Z,101468
2018-01-26T17:06:04.192Z,101490
2018-01-26T17:11:08.036Z,101491
2018-01-26T17:16:12.485Z,101501
2018-01-26T17:21:17.100Z,101503
2018-01-26T17:26:21.552Z,101504
2018-01-26T17:31:25.068Z,101512
2018-01-26T17:36:28.159Z,101522
2018-01-26T17:41:32.604Z,101531
2018-01-26T17:46:37.044Z,101542
2018-01-26T17:51:40.139Z,101551
2018-01-26T17:56:44.580Z,101548
2018-01-26T18:01:48.529Z,101557
2018-01-26T18:06:52.384Z,101566
2018-01-26T18:11:56.841Z,101573
2018-01-26T18:17:01.434Z,101578
2018-01-26T18:22:05.875Z,101591
2018-01-26T18:27:10.312Z,101596
2018-01-26T18:32:14.772Z,101607
2018-01-26T18:37:19.576Z,101620
2018-01-26T18:42:24.017Z,101635
2018-01-26T18:47:28.456Z,101640
2018-01-26T18:52:31.551Z,101644
2018-01-26T18:57:37.006Z,101656
2018-01-26T19:02:41.435Z,101657
2018-01-26T19:07:45.868Z,101662
2018-01-26T19:12:48.973Z,101657
2018-01-26T19:17:52.069Z,101661
2018-01-26T19:22:56.508Z,101670
2018-01-26T19:28:00.965Z,101680
2018-01-26T19:33:05.388Z,101692
2018-01-26T19:38:09.832Z,101694
2018-01-26T19:43:14.268Z,101705
2018-01-26T19:48:18.748Z,101715
2018-01-26T19:53:21.841Z,101729
2018-01-26T19:58:26.697Z,101731
2018-01-26T20:03:32.757Z,101747
2018-01-26T20:14:26.913Z,101751
2018-01-26T20:19:31.144Z,101759
2018-01-26T20:24:36.420Z,101761
2018-01-26T20:29:40.901Z,101777
2018-01-26T20:34:45.351Z,101784
2018-01-26T20:39:49.869Z,101790
2018-01-26T20:44:54.304Z,101801
2018-01-26T20:49:58.897Z,101810
2018-01-26T20:55:03.336Z,101803
2018-01-26T21:00:06.869Z,101820
2018-01-26T21:05:11.320Z,101826
2018-01-26T21:10:15.769Z,101830
2018-01-26T21:15:20.383Z,101836
2018-01-26T21:20:24.858Z,101848
2018-01-26T21:25:30.196Z,101856
2018-01-26T21:30:34.640Z,101863
2018-01-26T21:35:38.205Z,101860
2018-01-26T21:40:43.111Z,101866
2018-01-26T21:45:48.560Z,101871
2018-01-26T21:50:52.083Z,101880
2018-01-26T21:55:56.537Z,101879
2018-01-26T22:01:00.021Z,101879
2018-01-26T22:06:09.070Z,101884
2018-01-26T22:11:12.949Z,101888
2018-01-26T22:16:17.388Z,101902
2018-01-26T22:21:21.979Z,101908
2018-01-26T22:26:26.439Z,101922
2018-01-26T22:31:30.331Z,101922
2018-01-26T22:36:33.477Z,101924
2018-01-26T22:41:37.560Z,101925
2018-01-26T22:46:40.664Z,101934
2018-01-26T22:51:44.896Z,101937
2018-01-26T22:56:48.068Z,101947
2018-01-26T23:01:51.167Z,101955
2018-01-26T23:06:54.259Z,101954
2018-01-26T23:11:59.406Z,101964
2018-01-26T23:17:02.920Z,101968
2018-01-26T23:22:07.345Z,101980
2018-01-26T23:27:10.443Z,101980
2018-01-26T23:32:14.325Z,101988
2018-01-26T23:37:18.629Z,101996
2018-01-26T23:42:22.576Z,102003
2018-01-26T23:47:26.073Z,102005
2018-01-26T23:52:30.304Z,102005
2018-01-26T23:57:34.752Z,102008
